sensor_id;sensor_type;location;lat;lon;timestamp;P1;durP1;ratioP1;P2;durP2;ratioP2
60610;SDS011;46439;51.164;13.572;2023-05-29T00:00:21;9.60;;;5.40;;
60610;SDS011;46439;51.164;13.572;2023-05-29T00:02:50;9.90;;;5.50;;
60610;SDS011;46439;51.164;13.572;2023-05-29T00:05:19;10.30;;;5.70;;
60610;SDS011;46439;51.164;13.572;2023-05-29T00:07:47;12.20;;;5.40;;
60610;SDS011;46439;51.164;13.572;2023-05-29T00:10:17;9.10;;;5.80;;
60610;SDS011;46439;51.164;13.572;2023-05-29T00:12:45;8.10;;;5.30;;
60610;SDS011;46439;51.164;13.572;2023-05-29T00:15:14;10.80;;;5.50;;
60610;SDS011;46439;51.164;13.572;2023-05-29T00:17:42;10.70;;;5.80;;
60610;SDS011;46439;51.164;13.572;2023-05-29T00:20:12;9.30;;;5.70;;
60610;SDS011;46439;51.164;13.572;2023-05-29T00:22:40;10.00;;;5.90;;
60610;SDS011;46439;51.164;13.572;2023-05-29T00:25:10;11.20;;;5.90;;
60610;SDS011;46439;51.164;13.572;2023-05-29T00:27:38;9.30;;;6.00;;
60610;SDS011;46439;51.164;13.572;2023-05-29T00:30:08;9.10;;;6.00;;
60610;SDS011;46439;51.164;13.572;2023-05-29T00:32:38;10.80;;;5.70;;
60610;SDS011;46439;51.164;13.572;2023-05-29T00:35:08;14.60;;;5.70;;
60610;SDS011;46439;51.164;13.572;2023-05-29T00:37:37;11.40;;;6.20;;
60610;SDS011;46439;51.164;13.572;2023-05-29T00:40:07;9.30;;;5.90;;
60610;SDS011;46439;51.164;13.572;2023-05-29T00:42:37;8.40;;;5.30;;
60610;SDS011;46439;51.164;13.572;2023-05-29T00:45:07;13.40;;;6.20;;
60610;SDS011;46439;51.164;13.572;2023-05-29T00:47:36;12.50;;;5.80;;
60610;SDS011;46439;51.164;13.572;2023-05-29T00:50:06;10.70;;;6.20;;
60610;SDS011;46439;51.164;13.572;2023-05-29T00:52:37;10.90;;;6.10;;
60610;SDS011;46439;51.164;13.572;2023-05-29T00:55:07;9.60;;;6.10;;
60610;SDS011;46439;51.164;13.572;2023-05-29T00:57:36;11.70;;;6.00;;
60610;SDS011;46439;51.164;13.572;2023-05-29T01:00:06;11.40;;;5.90;;
60610;SDS011;46439;51.164;13.572;2023-05-29T01:02:40;9.10;;;6.20;;
60610;SDS011;46439;51.164;13.572;2023-05-29T01:05:11;11.10;;;6.40;;
60610;SDS011;46439;51.164;13.572;2023-05-29T01:07:41;9.20;;;6.40;;
60610;SDS011;46439;51.164;13.572;2023-05-29T01:10:10;10.30;;;6.50;;
60610;SDS011;46439;51.164;13.572;2023-05-29T01:12:40;11.30;;;6.50;;
60610;SDS011;46439;51.164;13.572;2023-05-29T01:15:16;10.10;;;6.40;;
60610;SDS011;46439;51.164;13.572;2023-05-29T01:17:51;11.50;;;6.00;;
60610;SDS011;46439;51.164;13.572;2023-05-29T01:20:35;10.40;;;5.90;;
60610;SDS011;46439;51.164;13.572;2023-05-29T01:23:11;10.20;;;6.10;;
60610;SDS011;46439;51.164;13.572;2023-05-29T01:26:04;11.70;;;6.70;;
60610;SDS011;46439;51.164;13.572;2023-05-29T01:28:51;10.50;;;5.90;;
60610;SDS011;46439;51.164;13.572;2023-05-29T01:31:23;9.60;;;5.70;;
60610;SDS011;46439;51.164;13.572;2023-05-29T01:33:55;11.50;;;5.90;;
60610;SDS011;46439;51.164;13.572;2023-05-29T01:36:25;11.70;;;6.40;;
60610;SDS011;46439;51.164;13.572;2023-05-29T01:38:54;10.60;;;6.50;;
60610;SDS011;46439;51.164;13.572;2023-05-29T01:41:24;11.20;;;6.20;;
60610;SDS011;46439;51.164;13.572;2023-05-29T01:43:53;10.60;;;5.90;;
60610;SDS011;46439;51.164;13.572;2023-05-29T01:46:24;8.60;;;5.90;;
60610;SDS011;46439;51.164;13.572;2023-05-29T01:48:52;10.10;;;5.70;;
60610;SDS011;46439;51.164;13.572;2023-05-29T01:51:21;9.00;;;5.80;;
60610;SDS011;46439;51.164;13.572;2023-05-29T01:53:50;10.60;;;6.10;;
60610;SDS011;46439;51.164;13.572;2023-05-29T01:56:19;8.80;;;5.70;;
60610;SDS011;46439;51.164;13.572;2023-05-29T01:58:47;10.00;;;5.60;;
60610;SDS011;46439;51.164;13.572;2023-05-29T02:01:17;9.60;;;5.80;;
60610;SDS011;46439;51.164;13.572;2023-05-29T02:03:45;7.90;;;5.50;;
60610;SDS011;46439;51.164;13.572;2023-05-29T02:06:14;9.70;;;5.70;;
60610;SDS011;46439;51.164;13.572;2023-05-29T02:08:43;11.10;;;5.80;;
60610;SDS011;46439;51.164;13.572;2023-05-29T02:11:12;12.10;;;5.90;;
60610;SDS011;46439;51.164;13.572;2023-05-29T02:13:41;10.50;;;6.00;;
60610;SDS011;46439;51.164;13.572;2023-05-29T02:16:10;9.70;;;6.40;;
60610;SDS011;46439;51.164;13.572;2023-05-29T02:18:39;10.60;;;5.70;;
60610;SDS011;46439;51.164;13.572;2023-05-29T02:21:08;8.90;;;5.70;;
60610;SDS011;46439;51.164;13.572;2023-05-29T02:23:36;10.70;;;5.80;;
60610;SDS011;46439;51.164;13.572;2023-05-29T02:26:05;9.10;;;5.80;;
60610;SDS011;46439;51.164;13.572;2023-05-29T02:28:34;15.40;;;6.40;;
60610;SDS011;46439;51.164;13.572;2023-05-29T02:31:03;10.50;;;5.90;;
60610;SDS011;46439;51.164;13.572;2023-05-29T02:33:31;12.40;;;6.20;;
60610;SDS011;46439;51.164;13.572;2023-05-29T02:36:00;9.20;;;6.10;;
60610;SDS011;46439;51.164;13.572;2023-05-29T02:38:28;8.70;;;5.20;;
60610;SDS011;46439;51.164;13.572;2023-05-29T02:40:57;10.30;;;6.40;;
60610;SDS011;46439;51.164;13.572;2023-05-29T02:43:25;12.00;;;6.30;;
60610;SDS011;46439;51.164;13.572;2023-05-29T02:45:53;9.90;;;5.70;;
60610;SDS011;46439;51.164;13.572;2023-05-29T02:48:22;9.00;;;6.00;;
60610;SDS011;46439;51.164;13.572;2023-05-29T02:50:51;9.10;;;6.00;;
60610;SDS011;46439;51.164;13.572;2023-05-29T02:53:19;10.20;;;5.90;;
60610;SDS011;46439;51.164;13.572;2023-05-29T02:55:48;10.50;;;6.20;;
60610;SDS011;46439;51.164;13.572;2023-05-29T02:58:17;9.50;;;6.10;;
60610;SDS011;46439;51.164;13.572;2023-05-29T03:00:48;12.30;;;6.00;;
60610;SDS011;46439;51.164;13.572;2023-05-29T03:03:16;10.80;;;6.40;;
60610;SDS011;46439;51.164;13.572;2023-05-29T03:05:45;9.50;;;6.10;;
60610;SDS011;46439;51.164;13.572;2023-05-29T03:08:14;10.00;;;6.10;;
60610;SDS011;46439;51.164;13.572;2023-05-29T03:10:42;11.70;;;6.70;;
60610;SDS011;46439;51.164;13.572;2023-05-29T03:13:11;11.90;;;6.60;;
60610;SDS011;46439;51.164;13.572;2023-05-29T03:15:40;10.20;;;6.40;;
60610;SDS011;46439;51.164;13.572;2023-05-29T03:18:08;10.30;;;6.70;;
60610;SDS011;46439;51.164;13.572;2023-05-29T03:20:37;13.00;;;6.90;;
60610;SDS011;46439;51.164;13.572;2023-05-29T03:23:05;10.60;;;7.30;;
60610;SDS011;46439;51.164;13.572;2023-05-29T03:25:34;10.00;;;6.60;;
60610;SDS011;46439;51.164;13.572;2023-05-29T03:28:03;12.90;;;6.90;;
60610;SDS011;46439;51.164;13.572;2023-05-29T03:30:31;13.90;;;7.10;;
60610;SDS011;46439;51.164;13.572;2023-05-29T03:32:59;8.80;;;6.00;;
60610;SDS011;46439;51.164;13.572;2023-05-29T03:35:30;10.90;;;6.50;;
60610;SDS011;46439;51.164;13.572;2023-05-29T03:37:58;8.90;;;6.30;;
60610;SDS011;46439;51.164;13.572;2023-05-29T03:40:27;11.50;;;6.90;;
60610;SDS011;46439;51.164;13.572;2023-05-29T03:42:55;11.20;;;7.10;;
60610;SDS011;46439;51.164;13.572;2023-05-29T03:45:23;11.30;;;7.00;;
60610;SDS011;46439;51.164;13.572;2023-05-29T03:47:52;11.20;;;7.00;;
60610;SDS011;46439;51.164;13.572;2023-05-29T03:50:20;12.20;;;6.60;;
60610;SDS011;46439;51.164;13.572;2023-05-29T03:52:49;10.90;;;6.70;;
60610;SDS011;46439;51.164;13.572;2023-05-29T03:55:17;10.30;;;6.70;;
60610;SDS011;46439;51.164;13.572;2023-05-29T03:57:46;13.00;;;7.30;;
60610;SDS011;46439;51.164;13.572;2023-05-29T04:00:15;9.40;;;6.80;;
60610;SDS011;46439;51.164;13.572;2023-05-29T04:02:44;11.80;;;7.10;;
60610;SDS011;46439;51.164;13.572;2023-05-29T04:05:13;11.90;;;7.20;;
60610;SDS011;46439;51.164;13.572;2023-05-29T04:07:41;11.30;;;7.10;;
60610;SDS011;46439;51.164;13.572;2023-05-29T04:10:10;14.00;;;7.40;;
60610;SDS011;46439;51.164;13.572;2023-05-29T04:12:39;13.20;;;7.60;;
60610;SDS011;46439;51.164;13.572;2023-05-29T04:15:08;9.80;;;7.10;;
60610;SDS011;46439;51.164;13.572;2023-05-29T04:17:37;10.70;;;7.10;;
60610;SDS011;46439;51.164;13.572;2023-05-29T04:20:06;11.80;;;7.40;;
60610;SDS011;46439;51.164;13.572;2023-05-29T04:22:36;11.60;;;6.70;;
60610;SDS011;46439;51.164;13.572;2023-05-29T04:25:05;13.50;;;7.00;;
60610;SDS011;46439;51.164;13.572;2023-05-29T04:27:34;10.50;;;7.00;;
60610;SDS011;46439;51.164;13.572;2023-05-29T04:30:04;12.10;;;7.10;;
60610;SDS011;46439;51.164;13.572;2023-05-29T04:32:34;12.90;;;6.90;;
60610;SDS011;46439;51.164;13.572;2023-05-29T04:35:03;12.50;;;7.90;;
60610;SDS011;46439;51.164;13.572;2023-05-29T04:37:32;11.00;;;6.90;;
60610;SDS011;46439;51.164;13.572;2023-05-29T04:40:07;10.70;;;6.60;;
60610;SDS011;46439;51.164;13.572;2023-05-29T04:42:37;9.50;;;6.60;;
60610;SDS011;46439;51.164;13.572;2023-05-29T04:45:08;9.40;;;6.10;;
60610;SDS011;46439;51.164;13.572;2023-05-29T04:47:37;9.30;;;6.20;;
60610;SDS011;46439;51.164;13.572;2023-05-29T04:50:10;9.80;;;6.10;;
60610;SDS011;46439;51.164;13.572;2023-05-29T04:52:39;10.30;;;6.30;;
60610;SDS011;46439;51.164;13.572;2023-05-29T04:55:09;12.10;;;6.60;;
60610;SDS011;46439;51.164;13.572;2023-05-29T04:57:37;10.80;;;5.60;;
60610;SDS011;46439;51.164;13.572;2023-05-29T05:00:07;11.90;;;5.90;;
60610;SDS011;46439;51.164;13.572;2023-05-29T05:02:41;12.30;;;5.70;;
60610;SDS011;46439;51.164;13.572;2023-05-29T05:05:10;8.20;;;5.40;;
60610;SDS011;46439;51.164;13.572;2023-05-29T05:07:39;9.50;;;5.50;;
60610;SDS011;46439;51.164;13.572;2023-05-29T05:10:09;10.60;;;5.70;;
60610;SDS011;46439;51.164;13.572;2023-05-29T05:12:38;8.20;;;5.40;;
60610;SDS011;46439;51.164;13.572;2023-05-29T05:15:08;9.10;;;6.00;;
60610;SDS011;46439;51.164;13.572;2023-05-29T05:17:38;11.80;;;6.20;;
60610;SDS011;46439;51.164;13.572;2023-05-29T05:20:08;10.30;;;5.20;;
60610;SDS011;46439;51.164;13.572;2023-05-29T05:22:40;11.00;;;5.40;;
60610;SDS011;46439;51.164;13.572;2023-05-29T05:25:13;8.90;;;5.70;;
60610;SDS011;46439;51.164;13.572;2023-05-29T05:27:55;9.00;;;5.80;;
60610;SDS011;46439;51.164;13.572;2023-05-29T05:30:24;10.40;;;5.90;;
60610;SDS011;46439;51.164;13.572;2023-05-29T05:32:52;10.30;;;5.90;;
60610;SDS011;46439;51.164;13.572;2023-05-29T05:35:27;9.80;;;6.00;;
60610;SDS011;46439;51.164;13.572;2023-05-29T05:38:03;10.50;;;6.20;;
60610;SDS011;46439;51.164;13.572;2023-05-29T05:40:38;10.60;;;6.30;;
60610;SDS011;46439;51.164;13.572;2023-05-29T05:43:12;11.90;;;7.00;;
60610;SDS011;46439;51.164;13.572;2023-05-29T05:45:42;11.50;;;7.00;;
60610;SDS011;46439;51.164;13.572;2023-05-29T05:48:12;11.30;;;6.90;;
60610;SDS011;46439;51.164;13.572;2023-05-29T05:50:43;10.30;;;6.70;;
60610;SDS011;46439;51.164;13.572;2023-05-29T05:53:13;12.90;;;6.80;;
60610;SDS011;46439;51.164;13.572;2023-05-29T05:55:43;10.10;;;6.40;;
60610;SDS011;46439;51.164;13.572;2023-05-29T05:58:13;11.60;;;6.80;;
60610;SDS011;46439;51.164;13.572;2023-05-29T06:00:45;13.50;;;6.70;;
60610;SDS011;46439;51.164;13.572;2023-05-29T06:03:19;9.00;;;6.40;;
60610;SDS011;46439;51.164;13.572;2023-05-29T06:05:49;12.10;;;7.00;;
60610;SDS011;46439;51.164;13.572;2023-05-29T06:08:19;13.40;;;8.00;;
60610;SDS011;46439;51.164;13.572;2023-05-29T06:10:50;10.60;;;6.80;;
60610;SDS011;46439;51.164;13.572;2023-05-29T06:13:23;11.50;;;6.80;;
60610;SDS011;46439;51.164;13.572;2023-05-29T06:15:53;12.60;;;7.30;;
60610;SDS011;46439;51.164;13.572;2023-05-29T06:18:23;11.30;;;6.50;;
60610;SDS011;46439;51.164;13.572;2023-05-29T06:20:53;13.00;;;7.10;;
60610;SDS011;46439;51.164;13.572;2023-05-29T06:23:23;11.10;;;6.80;;
60610;SDS011;46439;51.164;13.572;2023-05-29T06:25:53;11.50;;;7.40;;
60610;SDS011;46439;51.164;13.572;2023-05-29T06:28:23;12.30;;;6.70;;
60610;SDS011;46439;51.164;13.572;2023-05-29T06:30:53;13.10;;;7.50;;
60610;SDS011;46439;51.164;13.572;2023-05-29T06:33:25;15.00;;;7.50;;
60610;SDS011;46439;51.164;13.572;2023-05-29T06:35:56;9.80;;;6.60;;
60610;SDS011;46439;51.164;13.572;2023-05-29T06:38:27;9.90;;;6.50;;
60610;SDS011;46439;51.164;13.572;2023-05-29T06:40:57;11.80;;;7.50;;
60610;SDS011;46439;51.164;13.572;2023-05-29T06:43:27;10.80;;;7.00;;
60610;SDS011;46439;51.164;13.572;2023-05-29T06:45:56;11.50;;;6.80;;
60610;SDS011;46439;51.164;13.572;2023-05-29T06:48:25;12.40;;;7.10;;
60610;SDS011;46439;51.164;13.572;2023-05-29T06:50:55;10.10;;;6.50;;
60610;SDS011;46439;51.164;13.572;2023-05-29T06:53:24;12.40;;;6.50;;
60610;SDS011;46439;51.164;13.572;2023-05-29T06:55:59;10.80;;;7.00;;
60610;SDS011;46439;51.164;13.572;2023-05-29T06:58:32;11.30;;;6.80;;
60610;SDS011;46439;51.164;13.572;2023-05-29T07:01:03;13.90;;;7.20;;
60610;SDS011;46439;51.164;13.572;2023-05-29T07:03:32;11.10;;;6.50;;
60610;SDS011;46439;51.164;13.572;2023-05-29T07:06:03;8.60;;;5.90;;
60610;SDS011;46439;51.164;13.572;2023-05-29T07:08:39;9.80;;;6.30;;
60610;SDS011;46439;51.164;13.572;2023-05-29T07:11:09;9.70;;;6.50;;
60610;SDS011;46439;51.164;13.572;2023-05-29T07:13:38;10.20;;;6.80;;
60610;SDS011;46439;51.164;13.572;2023-05-29T07:16:10;16.10;;;6.40;;
60610;SDS011;46439;51.164;13.572;2023-05-29T07:18:39;11.00;;;6.30;;
60610;SDS011;46439;51.164;13.572;2023-05-29T07:21:11;10.40;;;6.20;;
60610;SDS011;46439;51.164;13.572;2023-05-29T07:23:40;11.50;;;6.30;;
60610;SDS011;46439;51.164;13.572;2023-05-29T07:26:11;16.00;;;7.00;;
60610;SDS011;46439;51.164;13.572;2023-05-29T07:28:44;11.20;;;6.70;;
60610;SDS011;46439;51.164;13.572;2023-05-29T07:31:20;12.80;;;7.00;;
60610;SDS011;46439;51.164;13.572;2023-05-29T07:33:54;9.50;;;6.30;;
60610;SDS011;46439;51.164;13.572;2023-05-29T07:36:23;12.10;;;6.20;;
60610;SDS011;46439;51.164;13.572;2023-05-29T07:38:56;9.40;;;5.80;;
60610;SDS011;46439;51.164;13.572;2023-05-29T07:41:28;7.80;;;5.60;;
60610;SDS011;46439;51.164;13.572;2023-05-29T07:43:57;8.00;;;5.70;;
60610;SDS011;46439;51.164;13.572;2023-05-29T07:46:25;9.20;;;5.50;;
60610;SDS011;46439;51.164;13.572;2023-05-29T07:48:55;11.90;;;6.20;;
60610;SDS011;46439;51.164;13.572;2023-05-29T07:51:24;8.80;;;5.50;;
60610;SDS011;46439;51.164;13.572;2023-05-29T07:53:53;8.80;;;5.10;;
60610;SDS011;46439;51.164;13.572;2023-05-29T07:56:21;9.10;;;4.80;;
60610;SDS011;46439;51.164;13.572;2023-05-29T07:58:52;7.80;;;4.70;;
60610;SDS011;46439;51.164;13.572;2023-05-29T08:01:21;7.10;;;4.40;;
60610;SDS011;46439;51.164;13.572;2023-05-29T08:03:50;8.60;;;4.00;;
60610;SDS011;46439;51.164;13.572;2023-05-29T08:06:19;8.40;;;4.50;;
60610;SDS011;46439;51.164;13.572;2023-05-29T08:08:48;9.40;;;4.70;;
60610;SDS011;46439;51.164;13.572;2023-05-29T08:11:18;8.40;;;4.70;;
60610;SDS011;46439;51.164;13.572;2023-05-29T08:13:48;7.70;;;4.20;;
60610;SDS011;46439;51.164;13.572;2023-05-29T08:16:17;6.90;;;4.00;;
60610;SDS011;46439;51.164;13.572;2023-05-29T08:18:45;7.10;;;4.10;;
60610;SDS011;46439;51.164;13.572;2023-05-29T08:21:14;9.80;;;4.60;;
60610;SDS011;46439;51.164;13.572;2023-05-29T08:23:43;10.40;;;5.70;;
60610;SDS011;46439;51.164;13.572;2023-05-29T08:26:11;8.50;;;5.60;;
60610;SDS011;46439;51.164;13.572;2023-05-29T08:28:40;8.70;;;5.70;;
60610;SDS011;46439;51.164;13.572;2023-05-29T08:31:09;9.90;;;5.00;;
60610;SDS011;46439;51.164;13.572;2023-05-29T08:33:38;9.80;;;6.00;;
60610;SDS011;46439;51.164;13.572;2023-05-29T08:36:06;8.20;;;5.60;;
60610;SDS011;46439;51.164;13.572;2023-05-29T08:38:38;7.70;;;5.20;;
60610;SDS011;46439;51.164;13.572;2023-05-29T08:41:06;9.50;;;4.90;;
60610;SDS011;46439;51.164;13.572;2023-05-29T08:43:39;9.60;;;4.80;;
60610;SDS011;46439;51.164;13.572;2023-05-29T08:46:10;10.10;;;5.40;;
60610;SDS011;46439;51.164;13.572;2023-05-29T08:48:46;9.70;;;5.50;;
60610;SDS011;46439;51.164;13.572;2023-05-29T08:51:22;6.70;;;4.30;;
60610;SDS011;46439;51.164;13.572;2023-05-29T08:53:58;11.00;;;4.80;;
60610;SDS011;46439;51.164;13.572;2023-05-29T08:56:44;7.50;;;3.80;;
60610;SDS011;46439;51.164;13.572;2023-05-29T08:59:16;6.00;;;3.70;;
60610;SDS011;46439;51.164;13.572;2023-05-29T09:01:51;7.90;;;3.60;;
60610;SDS011;46439;51.164;13.572;2023-05-29T09:04:27;8.50;;;3.30;;
60610;SDS011;46439;51.164;13.572;2023-05-29T09:06:57;7.70;;;3.70;;
60610;SDS011;46439;51.164;13.572;2023-05-29T09:09:29;5.60;;;3.80;;
60610;SDS011;46439;51.164;13.572;2023-05-29T09:12:01;5.40;;;3.30;;
60610;SDS011;46439;51.164;13.572;2023-05-29T09:14:34;7.10;;;3.50;;
60610;SDS011;46439;51.164;13.572;2023-05-29T09:17:04;5.80;;;3.70;;
60610;SDS011;46439;51.164;13.572;2023-05-29T09:19:35;5.90;;;3.60;;
60610;SDS011;46439;51.164;13.572;2023-05-29T09:22:07;7.50;;;3.70;;
60610;SDS011;46439;51.164;13.572;2023-05-29T09:24:40;5.90;;;3.20;;
60610;SDS011;46439;51.164;13.572;2023-05-29T09:27:12;6.40;;;3.40;;
60610;SDS011;46439;51.164;13.572;2023-05-29T09:29:42;9.70;;;4.00;;
60610;SDS011;46439;51.164;13.572;2023-05-29T09:32:13;7.80;;;4.00;;
60610;SDS011;46439;51.164;13.572;2023-05-29T09:34:44;6.40;;;3.70;;
60610;SDS011;46439;51.164;13.572;2023-05-29T09:37:13;7.70;;;3.50;;
60610;SDS011;46439;51.164;13.572;2023-05-29T09:39:48;6.80;;;3.40;;
60610;SDS011;46439;51.164;13.572;2023-05-29T09:42:18;6.50;;;3.80;;
60610;SDS011;46439;51.164;13.572;2023-05-29T09:44:48;5.40;;;3.60;;
60610;SDS011;46439;51.164;13.572;2023-05-29T09:47:20;6.50;;;3.10;;
60610;SDS011;46439;51.164;13.572;2023-05-29T09:49:50;5.60;;;3.60;;
60610;SDS011;46439;51.164;13.572;2023-05-29T09:52:21;8.00;;;3.00;;
60610;SDS011;46439;51.164;13.572;2023-05-29T09:54:50;5.60;;;2.90;;
60610;SDS011;46439;51.164;13.572;2023-05-29T09:57:19;7.40;;;3.70;;
60610;SDS011;46439;51.164;13.572;2023-05-29T09:59:50;5.90;;;2.80;;
60610;SDS011;46439;51.164;13.572;2023-05-29T10:02:21;5.10;;;2.80;;
60610;SDS011;46439;51.164;13.572;2023-05-29T10:04:51;5.90;;;3.20;;
60610;SDS011;46439;51.164;13.572;2023-05-29T10:07:22;6.30;;;3.20;;
60610;SDS011;46439;51.164;13.572;2023-05-29T10:09:57;6.00;;;2.90;;
60610;SDS011;46439;51.164;13.572;2023-05-29T10:12:29;5.10;;;2.90;;
60610;SDS011;46439;51.164;13.572;2023-05-29T10:15:05;5.00;;;3.00;;
60610;SDS011;46439;51.164;13.572;2023-05-29T10:17:39;4.70;;;3.00;;
60610;SDS011;46439;51.164;13.572;2023-05-29T10:20:16;6.30;;;3.10;;
60610;SDS011;46439;51.164;13.572;2023-05-29T10:22:46;8.40;;;3.20;;
60610;SDS011;46439;51.164;13.572;2023-05-29T10:25:17;5.00;;;2.80;;
60610;SDS011;46439;51.164;13.572;2023-05-29T10:27:48;5.20;;;3.20;;
60610;SDS011;46439;51.164;13.572;2023-05-29T10:30:20;4.70;;;3.10;;
60610;SDS011;46439;51.164;13.572;2023-05-29T10:33:00;4.60;;;2.90;;
60610;SDS011;46439;51.164;13.572;2023-05-29T10:35:44;5.70;;;2.70;;
60610;SDS011;46439;51.164;13.572;2023-05-29T10:38:18;8.60;;;3.10;;
60610;SDS011;46439;51.164;13.572;2023-05-29T10:40:48;6.60;;;2.80;;
60610;SDS011;46439;51.164;13.572;2023-05-29T10:43:32;6.10;;;3.30;;
60610;SDS011;46439;51.164;13.572;2023-05-29T10:46:03;5.50;;;2.80;;
60610;SDS011;46439;51.164;13.572;2023-05-29T10:48:38;4.70;;;2.50;;
60610;SDS011;46439;51.164;13.572;2023-05-29T10:51:08;6.70;;;3.20;;
60610;SDS011;46439;51.164;13.572;2023-05-29T10:53:51;9.00;;;3.10;;
60610;SDS011;46439;51.164;13.572;2023-05-29T10:56:23;6.00;;;2.90;;
60610;SDS011;46439;51.164;13.572;2023-05-29T10:58:57;4.80;;;3.00;;
60610;SDS011;46439;51.164;13.572;2023-05-29T11:01:28;6.20;;;3.10;;
60610;SDS011;46439;51.164;13.572;2023-05-29T11:06:59;5.50;;;3.00;;
60610;SDS011;46439;51.164;13.572;2023-05-29T11:09:33;10.60;;;3.10;;
60610;SDS011;46439;51.164;13.572;2023-05-29T11:12:13;7.50;;;2.90;;
60610;SDS011;46439;51.164;13.572;2023-05-29T11:15:02;7.40;;;3.00;;
60610;SDS011;46439;51.164;13.572;2023-05-29T11:17:34;4.60;;;2.60;;
60610;SDS011;46439;51.164;13.572;2023-05-29T11:20:28;4.80;;;2.80;;
60610;SDS011;46439;51.164;13.572;2023-05-29T11:23:08;6.20;;;2.80;;
60610;SDS011;46439;51.164;13.572;2023-05-29T11:25:44;6.10;;;2.90;;
60610;SDS011;46439;51.164;13.572;2023-05-29T11:28:14;4.90;;;3.10;;
60610;SDS011;46439;51.164;13.572;2023-05-29T11:30:44;6.60;;;3.30;;
60610;SDS011;46439;51.164;13.572;2023-05-29T11:33:20;6.10;;;3.20;;
60610;SDS011;46439;51.164;13.572;2023-05-29T11:35:54;5.20;;;3.10;;
60610;SDS011;46439;51.164;13.572;2023-05-29T11:38:24;7.70;;;3.20;;
60610;SDS011;46439;51.164;13.572;2023-05-29T11:40:54;6.80;;;2.90;;
60610;SDS011;46439;51.164;13.572;2023-05-29T11:43:24;5.70;;;3.30;;
60610;SDS011;46439;51.164;13.572;2023-05-29T11:45:54;6.40;;;2.80;;
60610;SDS011;46439;51.164;13.572;2023-05-29T11:48:22;5.80;;;3.10;;
60610;SDS011;46439;51.164;13.572;2023-05-29T11:50:51;8.10;;;3.40;;
60610;SDS011;46439;51.164;13.572;2023-05-29T11:53:19;4.70;;;2.90;;
60610;SDS011;46439;51.164;13.572;2023-05-29T11:55:48;4.50;;;2.90;;
60610;SDS011;46439;51.164;13.572;2023-05-29T11:58:17;4.90;;;3.10;;
60610;SDS011;46439;51.164;13.572;2023-05-29T12:00:47;5.60;;;3.20;;
60610;SDS011;46439;51.164;13.572;2023-05-29T12:03:17;4.40;;;2.90;;
60610;SDS011;46439;51.164;13.572;2023-05-29T12:05:46;4.70;;;3.10;;
60610;SDS011;46439;51.164;13.572;2023-05-29T12:08:19;5.50;;;3.00;;
60610;SDS011;46439;51.164;13.572;2023-05-29T12:10:53;6.00;;;3.10;;
60610;SDS011;46439;51.164;13.572;2023-05-29T12:13:21;7.90;;;3.20;;
60610;SDS011;46439;51.164;13.572;2023-05-29T12:15:51;7.30;;;2.80;;
60610;SDS011;46439;51.164;13.572;2023-05-29T12:18:22;4.30;;;3.00;;
60610;SDS011;46439;51.164;13.572;2023-05-29T12:20:51;8.50;;;3.40;;
60610;SDS011;46439;51.164;13.572;2023-05-29T12:23:25;5.60;;;3.00;;
60610;SDS011;46439;51.164;13.572;2023-05-29T12:25:55;5.10;;;3.30;;
60610;SDS011;46439;51.164;13.572;2023-05-29T12:28:25;4.70;;;3.20;;
60610;SDS011;46439;51.164;13.572;2023-05-29T12:30:59;7.90;;;3.00;;
60610;SDS011;46439;51.164;13.572;2023-05-29T12:33:31;6.20;;;3.30;;
60610;SDS011;46439;51.164;13.572;2023-05-29T12:36:05;5.30;;;2.90;;
60610;SDS011;46439;51.164;13.572;2023-05-29T12:41:22;6.30;;;3.10;;
60610;SDS011;46439;51.164;13.572;2023-05-29T12:43:53;8.30;;;3.40;;
60610;SDS011;46439;51.164;13.572;2023-05-29T12:46:25;7.90;;;3.00;;
60610;SDS011;46439;51.164;13.572;2023-05-29T12:48:55;7.30;;;3.00;;
60610;SDS011;46439;51.164;13.572;2023-05-29T12:51:24;5.00;;;3.40;;
60610;SDS011;46439;51.164;13.572;2023-05-29T12:53:53;5.90;;;3.30;;
60610;SDS011;46439;51.164;13.572;2023-05-29T12:56:24;5.50;;;3.30;;
60610;SDS011;46439;51.164;13.572;2023-05-29T12:58:53;5.50;;;3.20;;
60610;SDS011;46439;51.164;13.572;2023-05-29T13:01:24;8.10;;;3.10;;
60610;SDS011;46439;51.164;13.572;2023-05-29T13:03:53;4.20;;;2.80;;
60610;SDS011;46439;51.164;13.572;2023-05-29T13:06:22;6.50;;;3.30;;
60610;SDS011;46439;51.164;13.572;2023-05-29T13:08:52;7.20;;;3.30;;
60610;SDS011;46439;51.164;13.572;2023-05-29T13:11:23;7.40;;;3.60;;
60610;SDS011;46439;51.164;13.572;2023-05-29T13:13:52;7.10;;;3.20;;
60610;SDS011;46439;51.164;13.572;2023-05-29T13:16:21;7.90;;;3.70;;
60610;SDS011;46439;51.164;13.572;2023-05-29T13:18:55;5.50;;;3.20;;
60610;SDS011;46439;51.164;13.572;2023-05-29T13:21:32;6.10;;;3.20;;
60610;SDS011;46439;51.164;13.572;2023-05-29T13:24:02;22.20;;;3.80;;
60610;SDS011;46439;51.164;13.572;2023-05-29T13:26:31;9.30;;;3.50;;
60610;SDS011;46439;51.164;13.572;2023-05-29T13:29:00;6.30;;;3.20;;
60610;SDS011;46439;51.164;13.572;2023-05-29T13:31:28;6.70;;;3.30;;
60610;SDS011;46439;51.164;13.572;2023-05-29T13:33:57;6.80;;;3.40;;
60610;SDS011;46439;51.164;13.572;2023-05-29T13:36:26;5.70;;;3.00;;
60610;SDS011;46439;51.164;13.572;2023-05-29T13:38:55;7.10;;;3.30;;
60610;SDS011;46439;51.164;13.572;2023-05-29T13:41:25;7.10;;;3.30;;
60610;SDS011;46439;51.164;13.572;2023-05-29T13:43:54;8.50;;;3.70;;
60610;SDS011;46439;51.164;13.572;2023-05-29T13:46:23;6.00;;;3.10;;
60610;SDS011;46439;51.164;13.572;2023-05-29T13:48:53;5.50;;;3.40;;
60610;SDS011;46439;51.164;13.572;2023-05-29T13:51:23;5.50;;;3.50;;
60610;SDS011;46439;51.164;13.572;2023-05-29T13:53:52;6.70;;;3.10;;
60610;SDS011;46439;51.164;13.572;2023-05-29T13:56:20;5.80;;;3.40;;
60610;SDS011;46439;51.164;13.572;2023-05-29T13:58:50;4.20;;;3.00;;
60610;SDS011;46439;51.164;13.572;2023-05-29T14:01:21;8.80;;;3.40;;
60610;SDS011;46439;51.164;13.572;2023-05-29T14:04:00;6.20;;;3.30;;
60610;SDS011;46439;51.164;13.572;2023-05-29T14:06:29;4.80;;;3.20;;
60610;SDS011;46439;51.164;13.572;2023-05-29T14:08:59;6.00;;;3.50;;
60610;SDS011;46439;51.164;13.572;2023-05-29T14:11:27;6.70;;;3.60;;
60610;SDS011;46439;51.164;13.572;2023-05-29T14:13:57;3.80;;;2.60;;
60610;SDS011;46439;51.164;13.572;2023-05-29T14:16:26;5.70;;;3.40;;
60610;SDS011;46439;51.164;13.572;2023-05-29T14:18:55;6.00;;;3.50;;
60610;SDS011;46439;51.164;13.572;2023-05-29T14:21:24;5.60;;;3.10;;
60610;SDS011;46439;51.164;13.572;2023-05-29T14:23:53;7.40;;;3.60;;
60610;SDS011;46439;51.164;13.572;2023-05-29T14:28:49;6.70;;;3.60;;
60610;SDS011;46439;51.164;13.572;2023-05-29T14:31:18;6.20;;;3.40;;
60610;SDS011;46439;51.164;13.572;2023-05-29T14:33:51;5.50;;;3.20;;
60610;SDS011;46439;51.164;13.572;2023-05-29T14:36:19;9.00;;;3.60;;
60610;SDS011;46439;51.164;13.572;2023-05-29T14:38:48;5.70;;;3.20;;
60610;SDS011;46439;51.164;13.572;2023-05-29T14:41:20;5.40;;;3.40;;
60610;SDS011;46439;51.164;13.572;2023-05-29T14:43:48;6.80;;;3.70;;
60610;SDS011;46439;51.164;13.572;2023-05-29T14:46:18;8.40;;;3.60;;
60610;SDS011;46439;51.164;13.572;2023-05-29T14:48:46;5.50;;;3.40;;
60610;SDS011;46439;51.164;13.572;2023-05-29T14:51:15;4.60;;;2.90;;
60610;SDS011;46439;51.164;13.572;2023-05-29T14:53:45;5.50;;;2.90;;
60610;SDS011;46439;51.164;13.572;2023-05-29T14:56:14;6.40;;;3.20;;